createdAt,value
2023-06-15T00:00:51.627Z,62.11
2023-06-15T00:01:51.621Z,61.91
2023-06-15T00:02:51.707Z,62.01
2023-06-15T00:03:51.684Z,61.98
2023-06-15T00:04:51.732Z,61.77
2023-06-15T00:05:51.582Z,61.60
2023-06-15T00:06:51.562Z,61.60
2023-06-15T00:07:51.554Z,61.80
2023-06-15T00:08:51.555Z,62.01
2023-06-15T00:09:51.542Z,61.91
2023-06-15T00:10:51.522Z,62.01
2023-06-15T00:11:51.512Z,61.91
2023-06-15T00:12:51.499Z,62.11
2023-06-15T00:13:51.515Z,62.11
2023-06-15T00:14:51.475Z,62.11
2023-06-15T00:15:51.484Z,62.24
2023-06-15T00:16:51.455Z,62.34
2023-06-15T00:17:51.491Z,62.44
2023-06-15T00:18:51.441Z,62.44
2023-06-15T00:19:51.419Z,62.44
2023-06-15T00:20:51.420Z,62.64
2023-06-15T00:21:51.394Z,62.74
2023-06-15T00:22:51.399Z,63.18
2023-06-15T00:23:51.457Z,63.28
2023-06-15T00:24:51.376Z,63.48
2023-06-15T00:25:51.353Z,63.48
2023-06-15T00:26:51.344Z,63.68
2023-06-15T00:27:51.356Z,63.58
2023-06-15T00:28:51.375Z,63.78
2023-06-15T00:29:51.320Z,63.89
2023-06-15T00:30:51.304Z,63.78
2023-06-15T00:31:51.289Z,63.48
2023-06-15T00:32:51.417Z,63.58
2023-06-15T00:33:51.262Z,63.68
2023-06-15T00:34:51.257Z,63.48
2023-06-15T00:35:51.245Z,63.08
2023-06-15T00:36:51.259Z,63.18
2023-06-15T00:37:51.327Z,63.25
2023-06-15T00:38:51.218Z,63.15
2023-06-15T00:39:51.214Z,63.05
2023-06-15T00:40:51.198Z,63.15
2023-06-15T00:41:51.195Z,63.28
2023-06-15T00:42:51.170Z,63.18
2023-06-15T00:43:51.172Z,63.38
2023-06-15T00:44:51.149Z,63.28
2023-06-15T00:45:51.147Z,63.48
2023-06-15T00:46:51.187Z,63.38
2023-06-15T00:47:51.146Z,63.38
2023-06-15T00:48:51.111Z,63.38
2023-06-15T00:49:51.097Z,63.48
2023-06-15T00:50:51.119Z,63.48
2023-06-15T00:51:51.095Z,63.58
2023-06-15T00:52:51.072Z,63.48
2023-06-15T00:53:51.062Z,63.58
2023-06-15T00:54:51.060Z,63.58
2023-06-15T00:55:51.051Z,63.58
2023-06-15T00:56:51.025Z,63.68
2023-06-15T00:57:51.166Z,63.68
2023-06-15T00:58:51.013Z,63.89
2023-06-15T00:59:50.990Z,63.78
2023-06-15T01:00:51.078Z,63.58
2023-06-15T01:01:50.970Z,63.99
2023-06-15T01:02:51.102Z,64.09
2023-06-15T01:03:51.008Z,64.19
2023-06-15T01:04:50.962Z,64.19
2023-06-15T01:05:50.937Z,64.19
2023-06-15T01:06:50.979Z,64.09
2023-06-15T01:07:50.903Z,63.78
2023-06-15T01:08:50.898Z,63.89
2023-06-15T01:09:50.903Z,64.12
2023-06-15T01:10:50.877Z,64.22
2023-06-15T01:11:50.862Z,64.22
2023-06-15T01:12:50.930Z,64.22
2023-06-15T01:13:50.840Z,64.52
2023-06-15T01:14:50.855Z,64.42
2023-06-15T01:15:50.816Z,64.32
2023-06-15T01:16:50.873Z,64.32
2023-06-15T01:17:50.818Z,64.62
2023-06-15T01:18:50.805Z,64.73
2023-06-15T01:19:50.804Z,64.52
2023-06-15T01:20:50.767Z,64.22
2023-06-15T01:21:50.747Z,63.81
2023-06-15T01:22:50.814Z,63.71
2023-06-15T01:23:50.822Z,63.51
2023-06-15T01:24:50.732Z,63.71
2023-06-15T01:25:50.727Z,63.92
2023-06-15T01:26:50.704Z,63.81
2023-06-15T01:27:50.706Z,63.81
2023-06-15T01:28:50.752Z,63.81
2023-06-15T01:29:50.664Z,64.12
2023-06-15T01:30:50.698Z,64.12
2023-06-15T01:31:50.810Z,64.15
2023-06-15T01:32:50.709Z,64.25
2023-06-15T01:33:50.647Z,64.15
2023-06-15T01:34:50.611Z,64.42
2023-06-15T01:35:50.611Z,64.32
2023-06-15T01:36:50.598Z,64.32
2023-06-15T01:37:50.596Z,64.42
2023-06-15T01:38:50.585Z,64.32
2023-06-15T01:39:50.551Z,64.42
2023-06-15T01:40:50.593Z,64.25
2023-06-15T01:41:50.535Z,64.35
2023-06-15T01:42:50.553Z,64.55
2023-06-15T01:43:50.529Z,64.55
2023-06-15T01:44:50.508Z,64.65
2023-06-15T01:45:50.534Z,64.45
2023-06-15T01:46:50.545Z,64.65
2023-06-15T01:47:50.596Z,64.65
2023-06-15T01:48:50.461Z,64.76
2023-06-15T01:49:50.452Z,64.69
2023-06-15T01:50:50.442Z,64.79
2023-06-15T01:51:50.450Z,64.99
2023-06-15T01:52:50.419Z,65.09
2023-06-15T01:53:50.405Z,65.39
2023-06-15T01:54:50.400Z,65.39
2023-06-15T01:55:50.378Z,65.50
2023-06-15T01:56:50.409Z,65.59
2023-06-15T01:57:50.357Z,65.80
2023-06-15T01:58:50.351Z,65.80
2023-06-15T01:59:50.338Z,65.90
2023-06-15T02:00:50.365Z,66.00
2023-06-15T02:01:50.382Z,65.90
2023-06-15T02:02:50.362Z,66.00
2023-06-15T02:03:50.294Z,65.90
2023-06-15T02:04:50.294Z,65.90
2023-06-15T02:05:50.288Z,66.10
2023-06-15T02:06:50.275Z,66.00
2023-06-15T02:07:50.303Z,66.00
2023-06-15T02:08:50.253Z,65.90
2023-06-15T02:09:50.246Z,66.00
2023-06-15T02:10:50.255Z,66.10
2023-06-15T02:11:50.207Z,66.30
2023-06-15T02:12:50.216Z,66.20
2023-06-15T02:13:50.205Z,66.20
2023-06-15T02:14:50.195Z,66.10
2023-06-15T02:15:50.170Z,66.20
2023-06-15T02:16:51.050Z,66.71
2023-06-15T02:17:50.177Z,66.50
2023-06-15T02:18:50.141Z,66.41
2023-06-15T02:19:50.176Z,66.50
2023-06-15T02:20:50.124Z,66.30
2023-06-15T02:21:50.108Z,66.61
2023-06-15T02:22:50.099Z,66.61
2023-06-15T02:23:50.184Z,66.61
2023-06-15T02:24:50.096Z,66.50
2023-06-15T02:25:50.065Z,66.41
2023-06-15T02:26:50.054Z,66.50
2023-06-15T02:27:50.049Z,66.30
2023-06-15T02:28:50.052Z,66.20
2023-06-15T02:29:50.010Z,66.30
2023-06-15T02:30:50.011Z,66.10
2023-06-15T02:31:50.002Z,66.20
2023-06-15T02:32:50.077Z,66.20
2023-06-15T02:33:50.088Z,66.20
2023-06-15T02:34:49.966Z,66.00
2023-06-15T02:35:49.943Z,66.00
2023-06-15T02:36:49.954Z,66.10
2023-06-15T02:37:49.942Z,66.33
2023-06-15T02:38:49.957Z,66.50
2023-06-15T02:39:49.903Z,66.41
2023-06-15T02:40:49.908Z,66.10
2023-06-15T02:41:49.912Z,66.20
2023-06-15T02:42:49.909Z,66.20
2023-06-15T02:43:49.860Z,66.20
2023-06-15T02:44:49.863Z,66.10
2023-06-15T02:45:49.841Z,66.03
2023-06-15T02:46:49.847Z,66.03
2023-06-15T02:47:49.852Z,65.93
2023-06-15T02:48:49.823Z,66.03
2023-06-15T02:49:49.810Z,65.93
2023-06-15T02:50:49.790Z,66.13
2023-06-15T02:51:49.802Z,66.13
2023-06-15T02:52:49.777Z,66.03
2023-06-15T02:53:49.761Z,66.24
2023-06-15T02:54:49.748Z,66.33
2023-06-15T02:55:49.781Z,66.24
2023-06-15T02:56:49.743Z,66.13
2023-06-15T02:57:49.714Z,66.33
2023-06-15T02:58:49.710Z,66.24
2023-06-15T02:59:49.690Z,66.13
2023-06-15T03:00:49.753Z,66.13
2023-06-15T03:01:49.693Z,66.44
2023-06-15T03:02:49.809Z,66.24
2023-06-15T03:03:49.663Z,66.24
2023-06-15T03:04:49.643Z,66.24
2023-06-15T03:05:49.646Z,66.13
2023-06-15T03:06:49.578Z,66.24
2023-06-15T03:07:49.550Z,66.24
2023-06-15T03:08:49.557Z,66.44
2023-06-15T03:09:49.535Z,66.64
2023-06-15T03:10:49.539Z,66.44
2023-06-15T03:11:49.570Z,66.44
2023-06-15T03:12:49.561Z,66.54
2023-06-15T03:13:49.546Z,66.33
2023-06-15T03:14:49.541Z,66.44
2023-06-15T03:15:49.551Z,66.54
2023-06-15T03:16:49.519Z,66.64
2023-06-15T03:17:49.549Z,66.64
2023-06-15T03:18:49.508Z,66.57
2023-06-15T03:19:49.504Z,66.77
2023-06-15T03:20:49.544Z,66.88
2023-06-15T03:21:49.470Z,66.88
2023-06-15T03:22:49.463Z,66.88
2023-06-15T03:23:49.497Z,66.97
2023-06-15T03:24:49.458Z,67.18
2023-06-15T03:25:49.424Z,67.41
2023-06-15T03:26:49.375Z,67.72
2023-06-15T03:27:49.348Z,67.72
2023-06-15T03:28:49.357Z,68.02
2023-06-15T03:29:49.404Z,68.23
2023-06-15T03:30:49.369Z,67.92
2023-06-15T03:31:49.360Z,67.92
2023-06-15T03:32:49.387Z,67.82
2023-06-15T03:33:49.362Z,67.82
2023-06-15T03:34:49.336Z,67.72
2023-06-15T03:35:49.321Z,67.79
2023-06-15T03:36:49.272Z,67.58
2023-06-15T03:37:49.242Z,67.41
2023-06-15T03:38:49.307Z,67.31
2023-06-15T03:39:49.283Z,67.61
2023-06-15T03:40:49.278Z,67.51
2023-06-15T03:41:49.218Z,67.72
2023-06-15T03:42:49.221Z,67.82
2023-06-15T03:43:49.212Z,67.51
2023-06-15T03:44:49.175Z,67.51
2023-06-15T03:45:49.165Z,67.72
2023-06-15T03:46:49.167Z,68.12
2023-06-15T03:47:49.217Z,68.02
2023-06-15T03:48:49.139Z,68.12
2023-06-15T03:49:49.126Z,67.92
2023-06-15T03:50:49.118Z,67.72
2023-06-15T03:51:49.104Z,68.02
2023-06-15T03:52:49.111Z,68.32
2023-06-15T03:53:49.087Z,68.02
2023-06-15T03:54:49.091Z,68.02
2023-06-15T03:55:49.060Z,68.12
2023-06-15T03:56:49.092Z,68.02
2023-06-15T03:57:49.047Z,68.23
2023-06-15T03:58:49.028Z,68.23
2023-06-15T03:59:49.029Z,68.23
2023-06-15T04:00:49.038Z,68.12
2023-06-15T04:01:49.021Z,68.52
2023-06-15T04:02:49.053Z,68.63
2023-06-15T04:03:49.013Z,68.63
2023-06-15T04:04:48.993Z,68.52
2023-06-15T04:05:48.956Z,68.43
2023-06-15T04:06:48.966Z,68.83
2023-06-15T04:07:48.928Z,68.73
2023-06-15T04:08:48.923Z,68.70
2023-06-15T04:09:48.938Z,68.60
2023-06-15T04:10:48.923Z,68.73
2023-06-15T04:11:48.908Z,68.80
2023-06-15T04:12:48.889Z,68.49
2023-06-15T04:13:48.876Z,68.60
2023-06-15T04:14:49.382Z,68.70
2023-06-15T04:15:48.887Z,68.80
2023-06-15T04:16:48.849Z,69.20
2023-06-15T04:17:48.958Z,69.20
2023-06-15T04:18:48.856Z,68.90
2023-06-15T04:19:48.807Z,68.90
2023-06-15T04:20:48.831Z,68.80
2023-06-15T04:21:48.798Z,68.49
2023-06-15T04:22:48.845Z,68.60
2023-06-15T04:23:48.829Z,68.70
2023-06-15T04:24:48.777Z,68.49
2023-06-15T04:25:48.770Z,68.40
2023-06-15T04:26:48.762Z,68.80
2023-06-15T04:27:48.723Z,68.70
2023-06-15T04:28:48.718Z,68.40
2023-06-15T04:29:48.719Z,68.70
2023-06-15T04:30:48.794Z,68.80
2023-06-15T04:31:48.692Z,68.40
2023-06-15T04:32:48.689Z,68.49
2023-06-15T04:33:48.695Z,68.49
2023-06-15T04:34:48.675Z,68.36
2023-06-15T04:35:48.649Z,68.36
2023-06-15T04:36:48.656Z,68.49
2023-06-15T04:37:48.623Z,68.60
2023-06-15T04:38:48.634Z,68.40
2023-06-15T04:39:48.630Z,68.60
2023-06-15T04:40:48.596Z,68.66
2023-06-15T04:41:48.583Z,68.46
2023-06-15T04:42:48.568Z,68.40
2023-06-15T04:43:48.589Z,68.60
2023-06-15T04:44:48.561Z,68.60
2023-06-15T04:45:48.558Z,68.80
2023-06-15T04:46:48.541Z,68.80
2023-06-15T04:47:48.784Z,68.80
2023-06-15T04:48:48.542Z,69.00
2023-06-15T04:49:48.503Z,68.97
2023-06-15T04:50:48.496Z,68.66
2023-06-15T04:51:48.484Z,68.77
2023-06-15T04:52:48.488Z,68.66
2023-06-15T04:53:48.499Z,68.87
2023-06-15T04:54:48.443Z,68.46
2023-06-15T04:55:48.442Z,68.66
2023-06-15T04:56:48.442Z,68.60
2023-06-15T04:57:48.437Z,68.90
2023-06-15T04:58:48.408Z,68.90
2023-06-15T04:59:48.404Z,68.60
2023-06-15T05:00:48.387Z,68.90
2023-06-15T05:01:48.424Z,69.20
2023-06-15T05:02:48.502Z,69.27
2023-06-15T05:03:48.441Z,69.31
2023-06-15T05:04:48.344Z,69.41
2023-06-15T05:05:48.337Z,69.10
2023-06-15T05:06:48.337Z,68.90
2023-06-15T05:07:48.350Z,68.97
2023-06-15T05:08:48.310Z,68.77
2023-06-15T05:09:48.344Z,68.66
2023-06-15T05:10:48.278Z,68.77
2023-06-15T05:11:48.303Z,69.17
2023-06-15T05:12:48.267Z,69.37
2023-06-15T05:13:48.256Z,69.37
2023-06-15T05:14:48.248Z,69.17
2023-06-15T05:15:48.249Z,69.07
2023-06-15T05:16:48.228Z,68.63
2023-06-15T05:17:48.256Z,68.87
2023-06-15T05:18:48.199Z,68.66
2023-06-15T05:19:48.198Z,68.66
2023-06-15T05:20:48.191Z,69.07
2023-06-15T05:21:48.188Z,68.77
2023-06-15T05:22:48.150Z,69.04
2023-06-15T05:23:48.193Z,68.43
2023-06-15T05:24:48.137Z,68.73
2023-06-15T05:25:48.154Z,68.94
2023-06-15T05:26:48.122Z,68.94
2023-06-15T05:27:48.199Z,69.24
2023-06-15T05:28:48.094Z,69.14
2023-06-15T05:29:48.103Z,69.54
2023-06-15T05:30:48.101Z,69.34
2023-06-15T05:31:48.071Z,69.34
2023-06-15T05:32:48.107Z,69.54
2023-06-15T05:33:48.043Z,69.24
2023-06-15T05:34:48.050Z,69.54
2023-06-15T05:35:48.024Z,69.04
2023-06-15T05:36:56.597Z,69.24
2023-06-15T05:37:48.999Z,69.65
2023-06-15T05:38:47.989Z,69.54
2023-06-15T05:39:48.002Z,69.44
2023-06-15T05:40:47.970Z,69.34
2023-06-15T05:41:47.973Z,69.24
2023-06-15T05:42:47.949Z,69.51
2023-06-15T05:43:47.972Z,69.41
2023-06-15T05:44:47.953Z,69.21
2023-06-15T05:45:50.832Z,69.41
2023-06-15T05:46:48.920Z,69.61
2023-06-15T05:47:47.926Z,69.61
2023-06-15T05:48:47.910Z,69.51
2023-06-15T05:49:47.895Z,70.02
2023-06-15T05:50:47.874Z,70.12
2023-06-15T05:51:47.850Z,69.10
2023-06-15T05:52:47.844Z,68.90
2023-06-15T05:53:47.854Z,68.70
2023-06-15T05:54:47.821Z,69.68
2023-06-15T05:55:47.821Z,69.48
2023-06-15T05:56:47.812Z,69.38
2023-06-15T05:57:47.808Z,68.77
2023-06-15T05:58:47.809Z,69.07
2023-06-15T05:59:47.779Z,69.07
2023-06-15T06:00:47.770Z,68.97
2023-06-15T06:01:47.762Z,69.27
2023-06-15T06:02:47.805Z,69.07
2023-06-15T06:03:47.729Z,69.48
2023-06-15T06:04:47.726Z,68.87
2023-06-15T06:05:47.717Z,68.87
2023-06-15T06:06:47.770Z,69.24
2023-06-15T06:07:47.711Z,68.84
2023-06-15T06:08:47.684Z,68.63
2023-06-15T06:09:47.668Z,68.33
2023-06-15T06:10:47.649Z,68.63
2023-06-15T06:11:47.673Z,68.33
2023-06-15T06:12:47.635Z,69.24
2023-06-15T06:13:47.635Z,69.11
2023-06-15T06:14:47.641Z,69.11
2023-06-15T06:15:47.608Z,69.51
2023-06-15T06:16:47.604Z,69.11
2023-06-15T06:18:03.649Z,69.21
2023-06-15T06:18:48.643Z,68.91
2023-06-15T06:19:47.555Z,68.10
2023-06-15T06:20:47.590Z,68.30
2023-06-15T06:21:47.562Z,67.90
2023-06-15T06:22:47.527Z,67.97
2023-06-15T06:23:47.568Z,67.56
2023-06-15T06:24:47.499Z,67.16
2023-06-15T06:25:47.513Z,67.56
2023-06-15T06:26:47.488Z,67.86
2023-06-15T06:27:47.477Z,67.63
2023-06-15T06:28:47.480Z,67.23
2023-06-15T06:29:47.450Z,67.73
2023-06-15T06:30:47.461Z,67.83
2023-06-15T06:31:47.438Z,66.72
2023-06-15T06:32:47.482Z,65.99
2023-06-15T06:33:47.419Z,66.49
2023-06-15T06:34:47.438Z,66.08
2023-06-15T06:35:47.419Z,66.39
2023-06-15T06:36:47.378Z,66.66
2023-06-15T06:37:47.366Z,65.65
2023-06-15T06:39:01.151Z,65.55
2023-06-15T06:39:48.360Z,66.05
2023-06-15T06:40:47.333Z,66.25
2023-06-15T06:41:47.325Z,65.72
2023-06-15T06:42:47.311Z,64.81
2023-06-15T06:43:47.318Z,64.92
2023-06-15T06:44:47.308Z,65.62
2023-06-15T06:45:47.293Z,65.62
2023-06-15T06:46:47.270Z,65.52
2023-06-15T06:47:47.354Z,64.07
2023-06-15T06:48:47.268Z,64.78
2023-06-15T06:49:47.259Z,64.58
2023-06-15T06:50:47.237Z,64.28
2023-06-15T06:51:47.219Z,63.47
2023-06-15T06:52:47.204Z,63.67
2023-06-15T06:53:47.216Z,62.94
2023-06-15T06:54:47.191Z,62.54
2023-06-15T06:55:47.175Z,61.63
2023-06-15T06:56:47.168Z,60.93
2023-06-15T06:57:47.163Z,61.03
2023-06-15T06:58:47.169Z,61.30
2023-06-15T06:59:47.133Z,62.41
2023-06-15T07:00:47.133Z,60.29
2023-06-15T07:01:47.113Z,60.49
2023-06-15T07:02:47.320Z,61.40
2023-06-15T07:03:47.240Z,60.67
2023-06-15T07:04:47.076Z,61.57
2023-06-15T07:05:47.070Z,61.98
2023-06-15T07:06:47.061Z,61.87
2023-06-15T07:07:47.069Z,61.34
2023-06-15T07:08:47.040Z,60.44
2023-06-15T07:09:47.038Z,59.03
2023-06-15T07:10:47.015Z,59.53
2023-06-15T07:11:47.031Z,59.33
2023-06-15T07:12:47.005Z,59.60
2023-06-15T07:13:46.986Z,61.21
2023-06-15T07:14:46.967Z,58.90
2023-06-15T07:15:46.961Z,58.50
2023-06-15T07:16:46.974Z,58.80
2023-06-15T07:17:47.002Z,58.00
2023-06-15T07:18:46.926Z,58.17
2023-06-15T07:19:46.927Z,57.46
2023-06-15T07:20:48.150Z,57.06
2023-06-15T07:21:46.934Z,57.17
2023-06-15T07:22:46.882Z,57.24
2023-06-15T07:23:53.711Z,57.34
2023-06-15T07:24:47.965Z,57.14
2023-06-15T07:25:46.857Z,56.74
2023-06-15T07:26:46.861Z,55.73
2023-06-15T07:27:46.852Z,54.02
2023-06-15T07:28:46.825Z,55.30
2023-06-15T07:29:46.833Z,53.80
2023-06-15T07:30:46.813Z,54.50
2023-06-15T07:31:49.410Z,56.01
2023-06-15T07:32:46.800Z,55.38
2023-06-15T07:33:46.781Z,55.28
2023-06-15T07:34:46.786Z,55.08
2023-06-15T07:35:46.834Z,56.58
2023-06-15T07:36:46.765Z,54.88
2023-06-15T07:37:46.729Z,55.45
2023-06-15T07:38:46.715Z,56.05
2023-06-15T07:39:46.722Z,55.65
2023-06-15T07:40:46.711Z,54.25
2023-06-15T07:41:46.693Z,54.82
2023-06-15T07:42:46.682Z,55.13
2023-06-15T07:43:46.671Z,55.73
2023-06-15T07:44:46.675Z,54.02
2023-06-15T07:45:47.147Z,52.22
2023-06-15T07:46:46.633Z,52.52
2023-06-15T07:47:46.661Z,53.09
2023-06-15T07:48:46.618Z,53.59
2023-06-15T07:49:47.548Z,53.39
2023-06-15T07:50:46.592Z,53.89
2023-06-15T07:51:59.597Z,52.80
2023-06-15T07:52:47.566Z,53.30
2023-06-15T07:53:46.604Z,53.47
2023-06-15T07:54:46.586Z,53.07
2023-06-15T07:55:46.556Z,52.57
2023-06-15T07:56:46.632Z,52.27
2023-06-15T07:57:46.528Z,52.67
2023-06-15T07:58:46.536Z,52.97
2023-06-15T07:59:46.520Z,53.47
2023-06-15T08:00:46.489Z,52.87
2023-06-15T08:01:46.484Z,53.55
2023-06-15T08:02:46.504Z,52.04
2023-06-15T08:03:46.520Z,51.94
2023-06-15T08:04:46.451Z,52.04
2023-06-15T08:05:46.454Z,52.04
2023-06-15T08:06:46.453Z,50.32
2023-06-15T08:07:46.432Z,50.32
2023-06-15T08:08:46.417Z,50.52
2023-06-15T08:09:46.395Z,50.02
2023-06-15T08:10:48.285Z,48.61
2023-06-15T08:11:46.384Z,48.42
2023-06-15T08:12:46.392Z,47.69
2023-06-15T08:13:46.350Z,48.69
2023-06-15T08:14:46.337Z,49.49
2023-06-15T08:15:46.354Z,49.49
2023-06-15T08:16:46.349Z,48.17
2023-06-15T08:17:46.385Z,44.37
2023-06-15T08:18:46.300Z,44.37
2023-06-15T08:19:46.295Z,43.18
2023-06-15T08:20:46.276Z,42.46
2023-06-15T08:21:46.337Z,42.55
2023-06-15T08:22:46.270Z,42.35
2023-06-15T08:23:46.275Z,41.55
2023-06-15T08:24:46.293Z,41.16
2023-06-15T08:25:46.234Z,43.55
2023-06-15T08:26:46.247Z,42.93
2023-06-15T08:27:46.208Z,42.83
2023-06-15T08:28:52.489Z,43.83
2023-06-15T08:29:47.194Z,43.13
2023-06-15T08:30:46.185Z,44.03
2023-06-15T08:31:46.207Z,46.83
2023-06-15T08:32:46.215Z,44.53
2023-06-15T08:33:46.158Z,44.23
2023-06-15T08:34:46.167Z,45.01
2023-06-15T08:35:46.152Z,41.02
2023-06-15T08:36:46.155Z,43.01
2023-06-15T08:37:46.108Z,45.21
2023-06-15T08:38:46.094Z,46.70
2023-06-15T08:39:46.085Z,41.82
2023-06-15T08:40:46.100Z,40.92
2023-06-15T08:41:46.074Z,43.51
2023-06-15T08:42:46.052Z,41.82
2023-06-15T08:43:46.045Z,43.11
2023-06-15T08:44:46.035Z,40.01
2023-06-15T08:45:46.036Z,40.22
2023-06-15T08:46:46.009Z,42.11
2023-06-15T08:47:46.090Z,41.22
2023-06-15T08:48:45.987Z,41.39
2023-06-15T08:49:46.001Z,42.89
2023-06-15T08:50:46.808Z,41.00
2023-06-15T08:51:45.999Z,39.90
2023-06-15T08:52:45.946Z,39.10
2023-06-15T08:53:45.951Z,40.10
2023-06-15T08:54:45.966Z,40.20
2023-06-15T08:55:45.982Z,42.67
2023-06-15T08:56:45.907Z,41.17
2023-06-15T08:57:45.942Z,41.88
2023-06-15T08:58:45.903Z,40.18
2023-06-15T08:59:45.918Z,39.48
2023-06-15T09:00:45.875Z,41.77
2023-06-15T09:01:45.871Z,40.28
2023-06-15T09:02:45.935Z,42.05
2023-06-15T09:03:45.892Z,42.45
2023-06-15T09:04:46.037Z,39.56
2023-06-15T09:05:45.836Z,39.16
2023-06-15T09:06:45.816Z,39.16
2023-06-15T09:07:45.784Z,39.56
2023-06-15T09:08:45.798Z,40.06
2023-06-15T09:09:45.775Z,40.16
2023-06-15T09:10:45.774Z,41.83
2023-06-15T09:11:45.761Z,40.54
2023-06-15T09:12:45.761Z,40.54
2023-06-15T09:13:45.757Z,41.33
2023-06-15T09:14:45.784Z,39.84
2023-06-15T09:15:45.714Z,41.03
2023-06-15T09:16:45.712Z,40.74
2023-06-15T09:17:45.732Z,39.54
2023-06-15T09:18:45.681Z,39.34
2023-06-15T09:19:45.665Z,38.65
2023-06-15T09:20:45.712Z,39.25
2023-06-15T09:21:45.650Z,39.74
2023-06-15T09:22:45.688Z,39.74
2023-06-15T09:23:45.688Z,39.64
2023-06-15T09:24:45.623Z,40.44
2023-06-15T09:25:46.056Z,40.84
2023-06-15T09:26:45.608Z,39.74
2023-06-15T09:27:45.600Z,39.53
2023-06-15T09:28:45.568Z,38.73
2023-06-15T09:29:45.553Z,38.53
2023-06-15T09:30:45.553Z,39.32
2023-06-15T09:31:45.552Z,39.92
2023-06-15T09:32:45.623Z,39.42
2023-06-15T09:33:45.515Z,38.82
2023-06-15T09:34:45.510Z,38.13
2023-06-15T09:35:45.491Z,38.43
2023-06-15T09:36:45.507Z,38.53
2023-06-15T09:37:45.498Z,38.01
2023-06-15T09:38:45.499Z,38.11
2023-06-15T09:39:45.453Z,37.71
2023-06-15T09:40:45.470Z,37.51
2023-06-15T09:41:45.452Z,37.81
2023-06-15T09:42:45.435Z,38.21
2023-06-15T09:43:45.409Z,37.12
2023-06-15T09:44:45.431Z,37.21
2023-06-15T09:45:45.402Z,37.21
2023-06-15T09:46:45.390Z,38.21
2023-06-15T09:47:45.417Z,36.52
2023-06-15T09:48:45.365Z,37.02
2023-06-15T09:49:45.351Z,37.81
2023-06-15T09:50:45.456Z,38.21
2023-06-15T09:51:45.341Z,37.32
2023-06-15T09:52:45.332Z,35.63
2023-06-15T09:53:45.388Z,36.12
2023-06-15T09:54:45.323Z,36.22
2023-06-15T09:55:45.300Z,35.82
2023-06-15T09:56:45.276Z,36.82
2023-06-15T09:57:45.268Z,36.82
2023-06-15T09:58:45.250Z,36.82
2023-06-15T09:59:45.263Z,36.72
2023-06-15T10:00:45.232Z,37.21
2023-06-15T10:01:45.221Z,36.52
2023-06-15T10:02:45.238Z,37.62
2023-06-15T10:03:45.325Z,37.21
2023-06-15T10:04:45.227Z,37.12
2023-06-15T10:05:45.169Z,37.41
2023-06-15T10:06:45.173Z,36.82
2023-06-15T10:07:45.173Z,36.92
2023-06-15T10:08:45.188Z,36.72
2023-06-15T10:09:45.131Z,37.62
2023-06-15T10:10:45.133Z,36.62
2023-06-15T10:11:45.114Z,36.92
2023-06-15T10:12:45.123Z,36.82
2023-06-15T10:13:45.121Z,36.72
2023-06-15T10:14:45.104Z,37.12
2023-06-15T10:15:45.076Z,36.72
2023-06-15T10:16:45.069Z,35.13
2023-06-15T10:17:45.106Z,36.00
2023-06-15T10:18:45.056Z,37.79
2023-06-15T10:19:45.070Z,37.90
2023-06-15T10:20:45.034Z,38.29
2023-06-15T10:21:45.018Z,37.00
2023-06-15T10:22:45.020Z,34.81
2023-06-15T10:23:45.043Z,34.73
2023-06-15T10:24:44.981Z,34.53
2023-06-15T10:25:44.998Z,34.92
2023-06-15T10:26:45.049Z,35.61
2023-06-15T10:27:44.964Z,35.63
2023-06-15T10:28:44.947Z,35.42
2023-06-15T10:29:44.929Z,35.33
2023-06-15T10:30:44.935Z,35.33
2023-06-15T10:31:44.935Z,34.63
2023-06-15T10:32:44.944Z,35.03
2023-06-15T10:33:44.907Z,35.13
2023-06-15T10:34:44.902Z,35.72
2023-06-15T10:35:44.877Z,35.52
2023-06-15T10:36:44.889Z,34.92
2023-06-15T10:37:44.880Z,35.42
2023-06-15T10:38:44.872Z,35.92
2023-06-15T10:39:44.832Z,34.52
2023-06-15T10:40:44.814Z,34.71
2023-06-15T10:41:44.828Z,34.52
2023-06-15T10:42:44.794Z,34.31
2023-06-15T10:43:44.786Z,33.72
2023-06-15T10:44:44.784Z,33.60
2023-06-15T10:45:44.778Z,33.90
2023-06-15T10:46:44.773Z,34.10
2023-06-15T10:47:44.757Z,33.90
2023-06-15T10:48:44.745Z,34.40
2023-06-15T10:49:44.717Z,34.78
2023-06-15T10:50:44.744Z,33.88
2023-06-15T10:51:44.745Z,32.79
2023-06-15T10:52:44.722Z,33.18
2023-06-15T10:53:44.682Z,33.69
2023-06-15T10:54:44.712Z,33.78
2023-06-15T10:55:44.673Z,34.08
2023-06-15T10:56:44.645Z,33.09
2023-06-15T10:57:44.637Z,34.17
2023-06-15T10:58:44.624Z,33.97
2023-06-15T10:59:44.692Z,33.97
2023-06-15T11:00:44.628Z,33.07
2023-06-15T11:01:44.594Z,33.47
2023-06-15T11:02:44.603Z,32.87
2023-06-15T11:03:44.575Z,31.88
2023-06-15T11:04:44.676Z,33.07
2023-06-15T11:05:44.549Z,33.27
2023-06-15T11:06:44.560Z,32.97
2023-06-15T11:07:44.584Z,32.08
2023-06-15T11:08:44.525Z,31.58
2023-06-15T11:09:44.521Z,31.98
2023-06-15T11:10:44.504Z,32.78
2023-06-15T11:11:44.500Z,32.38
2023-06-15T11:12:44.506Z,32.38
2023-06-15T11:13:44.485Z,32.69
2023-06-15T11:14:44.544Z,32.69
2023-06-15T11:15:44.446Z,32.69
2023-06-15T11:16:44.440Z,32.99
2023-06-15T11:17:44.490Z,32.79
2023-06-15T11:18:44.437Z,32.79
2023-06-15T11:19:44.405Z,31.91
2023-06-15T11:20:44.504Z,32.31
2023-06-15T11:21:44.381Z,32.31
2023-06-15T11:22:44.381Z,32.31
2023-06-15T11:23:44.426Z,32.90
2023-06-15T11:24:44.352Z,32.81
2023-06-15T11:25:44.346Z,32.51
2023-06-15T11:26:44.338Z,32.90
2023-06-15T11:27:44.335Z,31.91
2023-06-15T11:28:44.341Z,32.31
2023-06-15T11:29:44.308Z,32.21
2023-06-15T11:30:44.297Z,33.60
2023-06-15T11:31:44.288Z,32.32
2023-06-15T11:32:44.373Z,33.00
2023-06-15T11:33:44.262Z,31.81
2023-06-15T11:34:44.261Z,31.41
2023-06-15T11:35:44.238Z,30.91
2023-06-15T11:36:44.251Z,31.91
2023-06-15T11:37:44.251Z,31.02
2023-06-15T11:38:44.216Z,31.12
2023-06-15T11:39:44.211Z,31.51
2023-06-15T11:40:44.195Z,31.61
2023-06-15T11:41:44.190Z,31.91
2023-06-15T11:42:44.182Z,31.91
2023-06-15T11:43:44.278Z,31.81
2023-06-15T11:44:44.151Z,32.29
2023-06-15T11:45:44.144Z,32.49
2023-06-15T11:46:44.145Z,31.90
2023-06-15T11:47:44.145Z,31.90
2023-06-15T11:48:44.108Z,31.99
2023-06-15T11:49:44.103Z,32.09
2023-06-15T11:50:44.084Z,32.59
2023-06-15T11:51:44.095Z,32.49
2023-06-15T11:52:44.066Z,31.88
2023-06-15T11:53:44.065Z,32.48
2023-06-15T11:54:51.839Z,31.29
2023-06-15T11:55:45.053Z,30.89
2023-06-15T11:56:44.037Z,31.20
2023-06-15T11:57:44.016Z,31.10
2023-06-15T11:58:44.014Z,31.00
2023-06-15T11:59:43.985Z,30.80
2023-06-15T12:00:43.993Z,31.40
2023-06-15T12:01:43.968Z,31.20
2023-06-15T12:02:43.970Z,31.10
2023-06-15T12:03:57.867Z,31.80
2023-06-15T12:04:45.007Z,32.49
2023-06-15T12:05:45.995Z,32.69
2023-06-15T12:06:43.913Z,33.59
2023-06-15T12:07:43.909Z,32.79
2023-06-15T12:08:43.899Z,32.97
2023-06-15T12:09:43.913Z,32.57
2023-06-15T12:10:43.904Z,31.48
2023-06-15T12:11:43.871Z,31.38
2023-06-15T12:12:43.863Z,31.58
2023-06-15T12:13:43.834Z,31.58
2023-06-15T12:14:43.844Z,30.29
2023-06-15T12:15:43.885Z,31.09
2023-06-15T12:16:43.858Z,31.78
2023-06-15T12:17:43.840Z,31.88
2023-06-15T12:18:43.797Z,32.67
2023-06-15T12:19:43.796Z,32.06
2023-06-15T12:20:43.776Z,32.26
2023-06-15T12:21:43.747Z,32.86
2023-06-15T12:22:43.742Z,32.66
2023-06-15T12:23:43.778Z,30.87
2023-06-15T12:24:43.744Z,30.18
2023-06-15T12:25:43.704Z,31.26
2023-06-15T12:26:43.712Z,31.05
2023-06-15T12:27:43.713Z,29.98
2023-06-15T12:28:43.698Z,30.57
2023-06-15T12:29:43.673Z,30.08
2023-06-15T12:30:43.664Z,29.67
2023-06-15T12:31:43.649Z,29.37
2023-06-15T12:32:43.688Z,29.86
2023-06-15T12:33:43.661Z,30.56
2023-06-15T12:34:43.640Z,30.46
2023-06-15T12:35:43.605Z,30.46
2023-06-15T12:36:43.596Z,31.26
2023-06-15T12:37:50.723Z,31.15
2023-06-15T12:38:44.601Z,30.76
2023-06-15T12:39:43.569Z,30.86
2023-06-15T12:40:43.560Z,29.17
2023-06-15T12:41:43.541Z,29.37
2023-06-15T12:42:43.560Z,30.96
2023-06-15T12:43:43.532Z,31.15
2023-06-15T12:44:43.509Z,30.76
2023-06-15T12:45:43.522Z,31.34
2023-06-15T12:46:43.516Z,32.23
2023-06-15T12:47:43.523Z,31.74
2023-06-15T12:48:43.468Z,30.65
2023-06-15T12:49:43.468Z,30.44
2023-06-15T12:50:43.451Z,30.35
2023-06-15T12:51:43.453Z,29.96
2023-06-15T12:52:43.431Z,30.66